Time;durP1;ratioP1;P1;durP2;ratioP2;P2;SDS_P1;SDS_P2;PMS_P1;PMS_P2;Temp;Humidity;BMP_temperature;BMP_pressure;BME280_temperature;BME280_humidity;BME280_pressure;Samples;Min_cycle;Max_cycle;Signal;HPM_P1;HPM_P2
2021/11/12 00:11:48;;;;;;;11.82;9.35;;;;;;;14.00;67.86;102055.03;4920130;28;102397;-52
2021/11/12 00:13:18;;;;;;;10.55;8.57;;;;;;;14.00;67.58;102051.47;4924350;28;108090;-52
2021/11/12 00:15:51;;;;;;;12.32;8.68;;;;;;;14.01;67.97;102047.63;4934407;28;102266;-52
2021/11/12 00:18:19;;;;;;;11.73;9.20;;;;;;;14.01;67.50;102036.69;4923701;28;102162;-52
2021/11/12 00:20:59;;;;;;;10.88;8.73;;;;;;;14.00;67.54;102041.34;4937357;28;102374;-52
2021/11/12 00:23:27;;;;;;;9.90;8.45;;;;;;;14.01;67.51;102026.56;4933072;28;103695;-52
2021/11/12 00:25:54;;;;;;;12.33;8.97;;;;;;;14.01;67.85;102021.06;4925408;28;102157;-52
2021/11/12 00:28:28;;;;;;;10.85;8.70;;;;;;;14.01;67.86;102025.72;4929774;28;102412;-53
2021/11/12 00:31:06;;;;;;;11.00;8.25;;;;;;;14.01;67.84;102023.00;4925209;28;103515;-52
2021/11/12 00:39:10;;;;;;;11.35;7.72;;;;;;;14.00;67.82;102013.97;4930399;28;102106;-52
2021/11/12 00:44:18;;;;;;;9.95;7.78;;;;;;;14.01;67.73;102007.38;4937400;28;103874;-52
2021/11/12 00:46:52;;;;;;;9.30;7.68;;;;;;;14.01;67.88;102003.84;4928395;28;102287;-53
2021/11/12 00:49:23;;;;;;;9.98;8.00;;;;;;;14.00;67.57;102003.00;4926878;28;103202;-53
2021/11/12 00:51:55;;;;;;;9.18;7.97;;;;;;;14.00;67.99;102008.50;4931966;28;102454;-52
2021/11/12 00:54:21;;;;;;;9.00;7.53;;;;;;;14.00;67.95;101997.53;4925165;28;103959;-52
2021/11/12 00:56:49;;;;;;;10.30;7.35;;;;;;;13.99;67.71;101993.13;4928573;28;101979;-53
2021/11/12 00:59:17;;;;;;;9.60;7.47;;;;;;;14.00;67.92;101991.25;4928754;28;102086;-52
2021/11/12 01:01:47;;;;;;;12.20;7.53;;;;;;;14.00;67.98;101992.06;4913733;28;102386;-52
2021/11/12 01:04:15;;;;;;;9.43;7.43;;;;;;;13.99;67.85;101989.56;4930054;28;103929;-52
2021/11/12 01:06:44;;;;;;;8.98;7.25;;;;;;;14.00;67.85;101992.06;4925599;28;102209;-52
2021/11/12 01:09:14;;;;;;;7.20;6.47;;;;;;;14.00;67.95;102003.00;4924155;28;102393;-52
2021/11/12 01:11:46;;;;;;;9.05;6.60;;;;;;;14.00;67.79;101996.72;4930803;28;102424;-53
2021/11/12 01:14:16;;;;;;;8.45;7.18;;;;;;;14.00;67.82;101997.53;4936868;28;104050;-52
2021/11/12 01:16:43;;;;;;;8.48;6.72;;;;;;;14.00;67.93;101997.53;4931602;28;102387;-53
2021/11/12 01:19:12;;;;;;;9.40;7.40;;;;;;;14.00;67.78;101989.31;4929779;28;102756;-53
2021/11/12 01:21:40;;;;;;;9.10;7.10;;;;;;;14.00;67.76;101989.31;4932035;28;102548;-52
2021/11/12 01:24:06;;;;;;;8.93;6.57;;;;;;;14.00;67.66;101986.59;4940253;28;104007;-52
2021/11/12 01:26:35;;;;;;;9.27;6.87;;;;;;;14.00;67.94;101978.38;4936722;28;102758;-53
2021/11/12 01:29:03;;;;;;;7.47;6.47;;;;;;;14.00;67.99;101981.13;4942191;28;102167;-52
2021/11/12 01:31:30;;;;;;;6.65;5.95;;;;;;;13.99;67.65;101984.91;4938075;28;102607;-53
2021/11/12 01:34:06;;;;;;;9.20;7.25;;;;;;;14.00;67.81;101981.13;4939353;28;103911;-52
2021/11/12 01:36:41;;;;;;;8.15;6.60;;;;;;;13.99;67.90;101984.91;4931932;28;102097;-52
2021/11/12 01:39:12;;;;;;;6.97;6.18;;;;;;;14.00;67.87;101983.03;4934235;28;102140;-52
2021/11/12 01:41:44;;;;;;;9.82;6.20;;;;;;;14.00;68.10;101983.03;4935480;28;102687;-53
2021/11/12 01:44:12;;;;;;;7.07;5.85;;;;;;;14.00;67.85;101985.78;4930268;28;103961;-52
2021/11/12 01:49:39;;;;;;;8.10;6.57;;;;;;;13.99;67.97;101984.91;4932766;28;102369;-53
2021/11/12 01:52:17;;;;;;;10.32;6.47;;;;;;;13.99;67.90;101979.44;4929988;28;102595;-51
2021/11/12 01:59:44;;;;;;;9.15;6.43;;;;;;;14.00;67.74;101980.31;4935605;28;102539;-52
2021/11/12 02:02:10;;;;;;;7.70;6.13;;;;;;;14.01;67.80;101981.94;4933715;28;103586;-52
2021/11/12 02:04:37;;;;;;;6.68;5.68;;;;;;;13.99;68.00;101982.19;4937120;28;103890;-52
2021/11/12 02:07:04;;;;;;;8.70;6.22;;;;;;;13.99;68.04;101979.44;4912938;28;102268;-53
2021/11/12 02:09:32;;;;;;;8.93;6.43;;;;;;;13.99;67.70;101973.97;4911402;28;102199;-53
2021/11/12 02:12:52;;;;;;;7.18;5.90;;;;;;;13.99;67.51;101973.97;4913608;28;103497;-52
2021/11/12 02:14:50;;;;;;;6.80;5.65;;;;;;;14.00;67.99;101975.66;4892514;28;103927;-52
2021/11/12 02:17:26;;;;;;;7.63;5.68;;;;;;;14.00;67.85;101972.09;4906720;28;102229;-52
2021/11/12 02:20:14;;;;;;;8.15;5.85;;;;;;;13.99;67.81;101979.44;4916781;28;102172;-52
2021/11/12 02:22:44;;;;;;;6.93;5.80;;;;;;;13.99;67.94;101984.91;4916688;28;102272;-52
2021/11/12 02:25:20;;;;;;;7.50;5.03;;;;;;;13.99;67.99;101987.66;4918614;28;103966;-52
2021/11/12 02:27:53;;;;;;;6.47;5.20;;;;;;;14.00;67.81;101991.25;4910815;28;102287;-52
2021/11/12 02:30:24;;;;;;;8.18;5.63;;;;;;;13.99;67.94;101984.91;4915345;28;102179;-52
2021/11/12 02:32:59;;;;;;;6.97;5.57;;;;;;;13.99;68.08;101989.56;4918647;28;102305;-52
2021/11/12 02:35:26;;;;;;;7.72;5.30;;;;;;;13.99;67.95;101990.41;4914136;28;103960;-52
2021/11/12 02:37:55;;;;;;;5.90;4.97;;;;;;;13.99;67.88;101987.66;4912201;28;102213;-52
2021/11/12 02:40:22;;;;;;;6.13;5.18;;;;;;;13.99;67.97;101982.19;4911920;28;102686;-53
2021/11/12 02:42:49;;;;;;;6.00;5.35;;;;;;;14.00;68.15;101988.50;4908518;28;104391;-53
2021/11/12 02:45:15;;;;;;;6.22;5.40;;;;;;;13.98;67.91;101994.22;4898500;28;103774;-52
2021/11/12 02:47:42;;;;;;;6.15;5.05;;;;;;;13.99;67.86;101995.88;4916110;28;102196;-53
2021/11/12 02:50:09;;;;;;;6.82;5.22;;;;;;;13.99;68.00;101997.78;4911677;28;102475;-52
2021/11/12 02:52:37;;;;;;;7.15;5.45;;;;;;;13.99;67.91;101995.88;4911245;28;102673;-52
2021/11/12 02:55:05;;;;;;;8.02;5.03;;;;;;;14.00;68.05;102002.19;4909154;28;103698;-52
2021/11/12 02:57:35;;;;;;;5.90;5.15;;;;;;;13.99;68.13;102006.00;4917805;28;102651;-52
2021/11/12 03:00:04;;;;;;;5.67;4.70;;;;;;;14.00;67.99;102013.97;4915411;28;102346;-52
2021/11/12 03:02:32;;;;;;;6.72;4.72;;;;;;;13.99;67.98;102001.34;4907815;28;102466;-52
2021/11/12 03:04:58;;;;;;;6.18;4.82;;;;;;;14.00;68.05;101999.47;4915234;28;104360;-53
2021/11/12 03:07:25;;;;;;;6.85;5.25;;;;;;;13.99;68.10;101995.88;4933103;28;102628;-52
2021/11/12 03:09:52;;;;;;;6.43;4.93;;;;;;;14.00;67.93;101999.47;4935422;28;102386;-53
2021/11/12 03:12:22;;;;;;;6.38;5.32;;;;;;;14.00;68.13;101996.72;4935936;28;102154;-53
2021/11/12 03:14:50;;;;;;;7.70;5.28;;;;;;;13.99;68.12;101990.41;4936432;28;103924;-53
2021/11/12 03:17:18;;;;;;;7.03;4.40;;;;;;;14.00;68.08;101994.81;4931663;28;102278;-52
2021/11/12 03:19:54;;;;;;;6.43;4.35;;;;;;;14.00;68.13;101996.72;4932593;28;102240;-52
2021/11/12 03:22:23;;;;;;;5.28;4.38;;;;;;;14.00;67.95;101992.06;4936490;28;102457;-52
2021/11/12 03:25:00;;;;;;;5.13;4.45;;;;;;;14.00;68.18;101986.59;4935007;28;102775;-52
2021/11/12 04:05:32;;;;;;;5.47;4.03;;;;;;;13.99;68.26;101970.41;4931418;28;102181;-53
2021/11/12 05:11:17;;;;;;;5.47;4.63;;;;;;;13.98;68.16;101998.88;4940280;28;102571;-52
2021/11/12 05:44:18;;;;;;;4.63;4.00;;;;;;;13.96;68.17;101993.69;4931052;28;102207;-52
2021/11/12 05:55:09;;;;;;;4.63;4.10;;;;;;;13.97;68.15;101997.25;4875389;28;102378;-52
2021/11/12 05:57:38;;;;;;;6.35;4.10;;;;;;;13.97;68.38;102013.66;4912698;28;103931;-52
2021/11/12 06:00:06;;;;;;;;;;;;;;;13.97;68.17;102011.75;4933563;28;102577;-53
2021/11/12 06:02:33;;;;;;;5.47;3.97;;;;;;;13.97;68.20;102014.47;4934779;28;102466;-52
2021/11/12 06:04:59;;;;;;;5.22;4.55;;;;;;;13.97;68.29;102016.41;4937183;28;102304;-52
2021/11/12 06:07:26;;;;;;;4.63;4.07;;;;;;;13.98;68.02;102015.31;4928074;28;103887;-52
2021/11/12 06:09:53;;;;;;;4.80;4.15;;;;;;;13.97;68.11;102017.22;4934634;28;102277;-52
2021/11/12 06:12:21;;;;;;;4.45;3.85;;;;;;;13.97;68.45;102011.75;4934194;28;102953;-52
2021/11/12 06:14:48;;;;;;;5.13;4.55;;;;;;;13.97;68.46;102005.44;4930056;28;102750;-53
2021/11/12 06:17:14;;;;;;;4.13;3.72;;;;;;;13.97;68.35;102009.00;4936217;28;104055;-52
2021/11/12 06:19:42;;;;;;;5.28;4.22;;;;;;;13.97;68.37;102003.53;4924186;28;102381;-52
2021/11/12 06:22:09;;;;;;;4.80;4.30;;;;;;;13.97;68.21;102006.28;4937958;28;102139;-52
2021/11/12 06:24:36;;;;;;;6.15;3.78;;;;;;;13.98;68.40;102005.19;4933367;28;102375;-52
2021/11/12 06:27:03;;;;;;;4.95;4.22;;;;;;;13.98;68.42;102007.09;4936381;28;103991;-53
2021/11/12 06:29:31;;;;;;;4.00;3.60;;;;;;;13.97;68.24;102006.28;4934278;28;102245;-52
2021/11/12 06:31:58;;;;;;;4.50;4.10;;;;;;;13.99;68.54;102000.53;4934045;28;102149;-52
2021/11/12 06:34:24;;;;;;;5.47;4.30;;;;;;;13.99;68.56;102001.34;4936680;28;102335;-52
2021/11/12 06:36:51;;;;;;;4.43;3.97;;;;;;;13.97;68.39;101998.06;4934894;28;103933;-52
2021/11/12 06:39:18;;;;;;;4.18;3.75;;;;;;;13.98;68.45;101998.88;4934842;28;103980;-52
2021/11/12 06:49:38;;;;;;;4.88;4.25;;;;;;;14.01;68.40;101992.88;4935981;28;102449;-52
2021/11/12 06:52:05;;;;;;;5.78;4.03;;;;;;;14.00;68.41;101992.06;4933756;28;102423;-52
2021/11/12 06:54:32;;;;;;;4.45;3.88;;;;;;;14.01;68.69;101993.72;4934709;28;102516;-52
2021/11/12 06:56:58;;;;;;;3.92;3.42;;;;;;;14.01;68.64;101993.72;4930664;28;104010;-52
2021/11/12 06:59:26;;;;;;;6.05;3.88;;;;;;;14.02;68.43;101995.34;4933131;28;102128;-53
2021/11/12 07:01:54;;;;;;;5.30;4.20;;;;;;;14.02;68.43;101998.09;4935748;28;102075;-52
2021/11/12 07:04:21;;;;;;;6.03;3.70;;;;;;;14.03;68.51;102002.50;4933782;28;102448;-53
2021/11/12 07:06:47;;;;;;;4.32;3.58;;;;;;;14.02;68.53;101992.59;4916667;28;104017;-52
2021/11/12 07:09:15;;;;;;;5.82;4.07;;;;;;;14.05;68.38;101996.75;4900340;28;102165;-52
2021/11/12 07:11:42;;;;;;;14.90;4.15;;;;;;;14.06;68.79;101995.66;4918058;28;102457;-52
2021/11/12 07:14:09;;;;;;;4.00;3.42;;;;;;;14.06;68.51;102001.13;4913626;28;102324;-52
2021/11/12 07:16:35;;;;;;;5.55;4.53;;;;;;;14.05;68.71;101994.00;4913324;28;104134;-52
2021/11/12 07:19:04;;;;;;;5.50;3.70;;;;;;;14.07;68.72;101998.13;4910413;28;102397;-52
2021/11/12 07:21:30;;;;;;;6.30;3.63;;;;;;;14.07;68.83;101987.19;4914069;28;102190;-52
2021/11/12 07:23:56;;;;;;;4.10;3.70;;;;;;;14.08;68.73;101988.81;4903959;28;102695;-52
2021/11/12 07:26:23;;;;;;;4.63;3.40;;;;;;;14.07;68.52;101987.19;4911997;28;104287;-52
2021/11/12 07:28:51;;;;;;;6.18;4.20;;;;;;;14.07;68.76;101984.44;4914214;28;102250;-52
2021/11/12 07:31:19;;;;;;;4.70;3.70;;;;;;;14.08;68.65;101980.63;4910197;28;102149;-52
2021/11/12 07:33:47;;;;;;;4.50;3.70;;;;;;;14.09;68.59;101985.00;4917137;28;102434;-52
2021/11/12 07:36:20;;;;;;;5.68;3.63;;;;;;;14.09;68.74;101979.50;4916866;28;104033;-52
2021/11/12 07:38:54;;;;;;;5.68;4.03;;;;;;;14.11;68.97;101982.00;4913904;28;102329;-52
2021/11/12 07:49:20;;;;;;;4.63;3.33;;;;;;;14.12;68.81;101967.22;4904610;28;102129;-52
2021/11/12 07:51:49;;;;;;;6.25;3.50;;;;;;;14.11;68.65;101966.41;4917072;28;102427;-52
2021/11/12 07:54:16;;;;;;;5.57;3.97;;;;;;;14.13;68.65;101966.13;4917260;28;102210;-52
2021/11/12 07:56:43;;;;;;;5.97;3.72;;;;;;;14.12;69.12;101959.84;4915931;28;103328;-52
2021/11/12 07:59:11;;;;;;;6.83;3.37;;;;;;;14.12;68.99;101951.63;4914626;28;102861;-52
2021/11/12 08:01:37;;;;;;;5.13;3.72;;;;;;;14.11;68.73;101960.94;4915249;28;102196;-52
2021/11/12 08:04:06;;;;;;;3.63;3.13;;;;;;;14.12;68.63;101957.09;4913974;28;103416;-52
2021/11/12 08:06:33;;;;;;;4.25;3.28;;;;;;;14.13;68.95;101964.22;4915415;28;104011;-52
2021/11/12 08:09:13;;;;;;;3.70;3.30;;;;;;;14.14;68.80;101965.06;4912073;28;102194;-53
2021/11/12 08:11:48;;;;;;;5.55;3.80;;;;;;;14.14;68.85;101965.88;4906841;28;102273;-52
2021/11/12 08:14:22;;;;;;;6.30;3.80;;;;;;;14.14;68.68;101963.13;4903927;28;102468;-52
2021/11/12 08:32:58;;;;;;;3.80;3.10;;;;;;;14.16;68.62;101939.03;4915965;28;102428;-52
2021/11/12 08:35:44;;;;;;;5.22;3.17;;;;;;;14.16;68.70;101941.78;4915759;28;102093;-52
2021/11/12 08:38:19;;;;;;;4.40;3.33;;;;;;;14.16;68.85;101941.78;4909672;28;108157;-52
2021/11/12 08:43:18;;;;;;;3.83;3.08;;;;;;;14.17;68.77;101927.03;4914070;28;102365;-52
2021/11/12 08:46:01;;;;;;;3.97;3.40;;;;;;;14.18;68.74;101928.66;4912922;28;102034;-52
2021/11/12 08:48:41;;;;;;;4.10;3.13;;;;;;;14.18;68.72;101920.44;4901635;28;104040;-52
2021/11/12 08:51:19;;;;;;;3.40;3.00;;;;;;;14.19;68.78;101924.00;4911078;28;102110;-52
2021/11/12 08:53:47;;;;;;;4.40;3.20;;;;;;;14.18;68.71;101923.19;4911245;28;102280;-53
2021/11/12 08:56:16;;;;;;;4.25;3.17;;;;;;;14.19;69.01;101924.81;4906041;28;102544;-52
2021/11/12 08:58:46;;;;;;;3.75;3.40;;;;;;;14.21;68.94;101921.84;4908550;28;103930;-54
2021/11/12 09:01:13;;;;;;;;;;;;;;;14.21;68.70;101921.00;4910685;28;102336;-52
2021/11/12 09:03:40;;;;;;;5.35;3.40;;;;;;;14.22;68.67;101919.91;4914470;28;102320;-52
2021/11/12 09:06:07;;;;;;;4.82;2.90;;;;;;;14.21;68.89;101910.03;4915980;28;102211;-52
2021/11/12 09:08:35;;;;;;;4.60;3.03;;;;;;;14.21;68.87;101913.63;4918488;28;102897;-52
2021/11/12 09:11:08;;;;;;;3.50;3.13;;;;;;;14.22;68.86;101909.78;4930992;28;102496;-52
2021/11/12 09:16:15;;;;;;;3.78;3.13;;;;;;;14.23;68.29;101902.41;4938312;28;102474;-52
2021/11/12 09:18:42;;;;;;;3.33;2.88;;;;;;;14.24;68.53;101904.03;4933313;28;103888;-52
2021/11/12 09:21:09;;;;;;;3.42;2.83;;;;;;;14.23;68.56;101894.19;4932365;28;102222;-52
2021/11/12 09:23:36;;;;;;;3.20;2.90;;;;;;;14.24;68.25;101893.09;4933749;28;102185;-52
2021/11/12 09:26:04;;;;;;;5.60;3.30;;;;;;;14.23;68.96;101892.25;4934539;28;102091;-52
2021/11/12 09:28:32;;;;;;;7.65;3.28;;;;;;;14.24;68.88;101887.59;4931256;28;104174;-52
2021/11/12 09:31:00;;;;;;;4.85;2.88;;;;;;;14.25;68.63;101887.34;4934952;28;102343;-52
2021/11/12 09:33:27;;;;;;;2.90;2.70;;;;;;;14.25;68.65;101890.09;4927872;28;102248;-52
2021/11/12 09:35:54;;;;;;;3.33;2.83;;;;;;;14.25;68.69;101884.63;4925883;28;103004;-52
2021/11/12 09:38:22;;;;;;;3.90;3.00;;;;;;;14.27;68.85;101887.91;4933164;28;104260;-52
2021/11/12 09:40:48;;;;;;;3.88;2.75;;;;;;;14.25;68.76;101883.81;4936804;28;102429;-52
2021/11/12 09:43:15;;;;;;;2.70;2.50;;;;;;;14.28;68.91;101877.75;4928119;28;102168;-52
2021/11/12 09:45:42;;;;;;;2.63;2.40;;;;;;;14.26;68.70;101867.09;4937344;28;102253;-53
2021/11/12 09:48:11;;;;;;;3.17;2.75;;;;;;;14.27;68.85;101878.88;4925188;28;103969;-52
2021/11/12 09:50:37;;;;;;;3.30;3.00;;;;;;;14.26;68.86;101871.75;4935906;28;102363;-52
2021/11/12 09:53:05;;;;;;;3.47;2.70;;;;;;;14.28;68.67;101877.75;4937004;28;102472;-52
2021/11/12 09:55:33;;;;;;;3.17;2.88;;;;;;;14.28;68.65;101877.75;4933305;28;102193;-52
2021/11/12 09:58:00;;;;;;;4.55;2.78;;;;;;;14.28;68.65;101872.28;4926516;28;103841;-52
2021/11/12 10:00:29;;;;;;;4.43;3.22;;;;;;;14.27;68.73;101866.00;4925897;28;102416;-52
2021/11/12 10:02:58;;;;;;;2.97;2.67;;;;;;;14.28;68.70;101861.34;4932918;28;102576;-52
2021/11/12 10:05:42;;;;;;;4.10;2.78;;;;;;;14.28;68.59;101858.59;4925749;28;102250;-52
2021/11/12 10:08:27;;;;;;;3.25;2.80;;;;;;;14.28;68.71;101853.13;4914842;28;103916;-52
2021/11/12 10:10:57;;;;;;;2.90;2.60;;;;;;;14.28;68.59;101850.38;4908664;28;102318;-52
2021/11/12 10:13:28;;;;;;;3.80;2.90;;;;;;;14.28;68.91;101850.38;4925084;28;102395;-52
2021/11/12 10:17:02;;;;;;;3.30;2.60;;;;;;;14.29;68.57;101846.56;4919203;28;102179;-52
2021/11/12 10:18:58;;;;;;;9.15;3.63;;;;;;;14.27;68.81;101844.09;4901932;28;102446;-52
2021/11/12 10:21:28;;;;;;;3.20;2.90;;;;;;;14.28;68.67;101847.66;4909529;28;103320;-52
2021/11/12 10:23:58;;;;;;;4.55;3.80;;;;;;;14.27;68.43;101843.28;4915266;28;102265;-52
2021/11/12 10:26:28;;;;;;;6.97;2.78;;;;;;;14.27;68.83;101837.78;4911092;28;102246;-52
2021/11/12 10:29:00;;;;;;;3.85;3.28;;;;;;;14.29;68.64;101846.56;4913352;28;103707;-56
2021/11/12 10:31:26;;;;;;;4.63;2.83;;;;;;;14.28;68.58;101844.91;4906815;28;102201;-52
2021/11/12 10:33:53;;;;;;;6.25;2.90;;;;;;;14.27;68.69;101838.59;4916106;28;102954;-52
2021/11/12 10:36:20;;;;;;;3.10;2.80;;;;;;;14.27;68.44;101835.06;4908617;28;102142;-52
2021/11/12 10:38:49;;;;;;;4.07;2.88;;;;;;;14.27;68.71;101829.56;4910196;28;103754;-52
2021/11/12 10:41:19;;;;;;;2.90;2.60;;;;;;;14.26;68.59;101834.22;4912942;28;102214;-53
2021/11/12 10:43:47;;;;;;;3.08;2.70;;;;;;;14.27;68.63;101826.84;4919365;28;102249;-52
2021/11/12 10:46:14;;;;;;;3.72;3.15;;;;;;;14.26;68.28;101830.69;4918818;28;102257;-52
2021/11/12 10:48:41;;;;;;;4.00;2.78;;;;;;;14.26;68.52;101827.94;4908044;28;103773;-52
2021/11/12 10:51:14;;;;;;;2.88;2.63;;;;;;;14.26;68.47;101822.47;4903829;28;102195;-53
2021/11/12 10:53:52;;;;;;;3.03;2.70;;;;;;;14.26;68.40;101817.00;4925324;28;102230;-52
2021/11/12 10:56:21;;;;;;;3.50;2.50;;;;;;;14.26;68.40;101814.25;4919603;28;102251;-52
2021/11/12 10:58:57;;;;;;;;;;;;;;;14.26;68.58;101811.50;4917432;28;104204;-52
2021/11/12 11:01:35;;;;;;;3.53;2.50;;;;;;;14.26;68.42;101814.25;4919321;28;102285;-52
2021/11/12 11:04:16;;;;;;;3.17;2.58;;;;;;;14.25;68.37;101807.94;4918319;28;102073;-52
2021/11/12 11:06:43;;;;;;;3.13;2.60;;;;;;;14.26;68.46;101814.25;4912219;28;102156;-52
2021/11/12 11:09:11;;;;;;;3.10;2.50;;;;;;;14.26;68.49;101811.50;4918078;28;103911;-52
2021/11/12 11:11:41;;;;;;;4.10;2.85;;;;;;;14.26;68.78;101814.25;4904407;28;102309;-52
2021/11/12 11:14:26;;;;;;;3.35;2.33;;;;;;;14.25;68.38;101812.63;4908935;28;102549;-52
2021/11/12 11:16:53;;;;;;;2.90;2.60;;;;;;;14.26;68.32;101808.78;4918495;28;102094;-52
2021/11/12 11:19:33;;;;;;;3.00;2.70;;;;;;;14.25;68.60;101810.69;4891414;28;104148;-52
2021/11/12 11:22:03;;;;;;;2.92;2.63;;;;;;;14.26;68.64;101803.28;4908143;28;102530;-52
2021/11/12 11:24:33;;;;;;;3.05;2.22;;;;;;;14.26;68.58;101803.28;4917516;28;102140;-52
2021/11/12 11:27:01;;;;;;;2.85;2.30;;;;;;;14.26;68.44;101803.28;4914047;28;102191;-52
2021/11/12 11:29:27;;;;;;;4.15;3.00;;;;;;;14.25;68.26;101798.91;4916313;28;103843;-52
2021/11/12 11:31:55;;;;;;;2.80;2.60;;;;;;;14.26;68.79;101803.28;4917122;28;102069;-52
2021/11/12 11:34:23;;;;;;;2.72;2.40;;;;;;;14.24;68.46;101792.59;4910032;28;102191;-52
2021/11/12 11:36:54;;;;;;;3.30;2.53;;;;;;;14.25;68.26;101791.53;4915974;28;105936;-52
2021/11/12 11:39:21;;;;;;;2.67;2.47;;;;;;;14.25;68.47;101782.50;4909614;28;108060;-52
2021/11/12 11:41:50;;;;;;;3.40;2.50;;;;;;;14.24;68.55;101783.56;4917069;28;102130;-52
2021/11/12 11:44:17;;;;;;;3.15;2.75;;;;;;;14.25;68.53;101775.09;4915041;28;102384;-52
2021/11/12 11:46:48;;;;;;;3.03;2.20;;;;;;;14.25;68.35;101774.28;4914838;28;102117;-52
2021/11/12 11:49:17;;;;;;;2.60;2.40;;;;;;;14.25;68.53;101769.63;4905295;28;103931;-52
2021/11/12 11:51:50;;;;;;;3.83;2.20;;;;;;;14.24;68.38;101772.63;4917141;28;102276;-52
2021/11/12 11:54:21;;;;;;;2.90;2.42;;;;;;;14.24;68.49;101784.38;4914494;28;102241;-51
2021/11/12 11:56:50;;;;;;;4.45;2.97;;;;;;;14.24;68.41;101778.09;4918034;28;102293;-52
2021/11/12 11:59:18;;;;;;;3.08;2.63;;;;;;;14.24;68.56;101773.44;4916083;28;103905;-52
2021/11/12 12:01:47;;;;;;;4.13;2.75;;;;;;;14.24;68.78;101767.13;4917766;28;102199;-52
2021/11/12 12:04:38;;;;;;;3.17;2.67;;;;;;;14.24;68.75;101759.75;4902797;28;102125;-52
2021/11/12 12:07:27;;;;;;;5.57;2.70;;;;;;;14.25;68.72;101752.38;4917423;28;102343;-52
2021/11/12 12:10:00;;;;;;;2.40;2.13;;;;;;;14.24;68.62;101761.66;4914760;28;103679;-52
2021/11/12 12:12:45;;;;;;;4.88;2.60;;;;;;;14.23;68.45;101749.06;4905519;28;102016;-52
2021/11/12 12:15:53;;;;;;;2.63;2.40;;;;;;;14.23;68.72;101743.59;4894317;28;102265;-52
2021/11/12 12:18:24;;;;;;;3.00;2.47;;;;;;;14.22;68.83;101740.03;4909029;28;102222;-52
2021/11/12 12:21:44;;;;;;;2.67;2.40;;;;;;;14.23;68.79;101744.41;4902947;28;103709;-52
2021/11/12 12:42:40;;;;;;;2.60;2.15;;;;;;;14.22;68.52;101742.78;4915182;28;102036;-52
2021/11/12 13:22:40;;;;;;;2.88;2.58;;;;;;;14.21;68.65;101752.09;4889600;28;102575;-51
2021/11/12 13:25:09;;;;;;;4.38;2.72;;;;;;;14.21;68.79;101746.63;4906485;28;102373;-52
2021/11/12 13:27:39;;;;;;;3.13;2.30;;;;;;;14.21;68.65;101753.97;4912210;28;102313;-52
2021/11/12 13:30:07;;;;;;;2.53;2.30;;;;;;;14.21;68.68;101751.25;4906426;28;102686;-52
2021/11/12 13:32:38;;;;;;;2.65;2.45;;;;;;;14.21;68.66;101754.84;4918371;28;103431;-53
2021/11/12 13:35:05;;;;;;;2.50;2.20;;;;;;;14.21;68.75;101753.97;4899796;28;102364;-53
2021/11/12 13:37:33;;;;;;;2.42;2.20;;;;;;;14.21;68.67;101756.72;4912214;28;102362;-52
2021/11/12 13:40:08;;;;;;;2.90;2.57;;;;;;;14.21;68.86;101760.31;4917059;28;103946;-52
2021/11/12 13:42:39;;;;;;;2.42;2.22;;;;;;;14.22;68.88;101758.38;4908967;28;102335;-52
2021/11/12 13:45:18;;;;;;;2.58;2.20;;;;;;;14.21;68.77;101751.25;4905322;28;102186;-53
2021/11/12 13:47:45;;;;;;;2.40;2.20;;;;;;;14.19;68.89;101744.13;4914252;28;103188;-52
2021/11/12 13:50:12;;;;;;;2.42;2.22;;;;;;;14.20;68.82;101742.22;4911898;28;103997;-53
2021/11/12 13:52:43;;;;;;;2.63;2.25;;;;;;;14.22;68.68;101752.91;4922724;28;101981;-52
2021/11/12 13:55:13;;;;;;;3.08;2.50;;;;;;;14.21;68.67;101752.09;4910701;28;102616;-52
2021/11/12 13:57:51;;;;;;;2.38;2.10;;;;;;;14.19;68.93;101744.13;4917595;28;102275;-52
2021/11/12 14:00:18;;;;;;;3.00;2.70;;;;;;;14.21;68.94;101751.25;4904339;28;102975;-53
2021/11/12 14:02:53;;;;;;;2.63;2.25;;;;;;;14.21;68.93;101754.84;4920703;28;102178;-52
2021/11/12 14:05:20;;;;;;;4.45;2.88;;;;;;;14.20;68.82;101739.47;4910480;28;102349;-52
2021/11/12 14:07:59;;;;;;;5.65;2.33;;;;;;;14.21;69.00;101752.09;4939621;28;102196;-52
2021/11/12 14:10:32;;;;;;;4.25;2.20;;;;;;;14.20;68.69;101747.69;4930196;28;104225;-53
2021/11/12 14:12:59;;;;;;;2.22;2.03;;;;;;;14.21;69.02;101748.50;4923523;28;102337;-52
2021/11/12 14:18:20;;;;;;;2.22;2.10;;;;;;;14.21;68.98;101757.56;4920018;28;102141;-52
2021/11/12 14:20:54;;;;;;;3.28;2.38;;;;;;;14.20;68.87;101753.16;4927984;28;104120;-53
2021/11/12 14:23:28;;;;;;;2.63;2.22;;;;;;;14.21;68.90;101753.97;4936879;28;102565;-52
2021/11/12 14:36:51;;;;;;;2.33;2.13;;;;;;;14.21;69.13;101767.66;4935964;28;102176;-52
2021/11/12 14:48:23;;;;;;;3.80;2.20;;;;;;;14.19;68.96;101777.00;4931640;28;102497;-52
2021/11/12 14:51:13;;;;;;;2.85;2.33;;;;;;;14.19;69.28;101766.03;4920498;28;102391;-52
2021/11/12 14:53:30;;;;;;;3.42;2.58;;;;;;;14.19;69.00;101766.03;4918428;28;103941;-52
2021/11/12 14:56:12;;;;;;;2.60;2.40;;;;;;;14.20;69.05;101764.13;4928224;28;102471;-52
2021/11/12 14:58:41;;;;;;;2.75;2.50;;;;;;;14.19;69.17;101774.25;4935817;28;102239;-52
2021/11/12 15:01:10;;;;;;;2.95;2.30;;;;;;;14.18;68.98;101769.88;4925185;28;102587;-52
2021/11/12 15:03:40;;;;;;;;;;;;;;;14.19;68.90;101777.00;4934902;28;103858;-52
2021/11/12 15:06:08;;;;;;;3.88;2.65;;;;;;;14.19;68.87;101777.00;4916166;28;102260;-52
2021/11/12 15:08:41;;;;;;;3.30;2.90;;;;;;;14.18;68.87;101780.81;4930102;28;102171;-52
2021/11/12 15:11:10;;;;;;;4.90;3.00;;;;;;;14.18;69.08;101764.41;4939400;28;102209;-52
2021/11/12 15:13:39;;;;;;;3.92;3.30;;;;;;;14.17;69.17;101779.19;4916487;28;103954;-52
2021/11/12 15:16:12;;;;;;;4.53;3.70;;;;;;;14.17;68.94;101779.19;4931066;28;102637;-52
2021/11/12 15:18:38;;;;;;;4.65;2.97;;;;;;;14.19;69.29;101778.91;4921915;28;102245;-52
2021/11/12 15:21:12;;;;;;;3.38;2.95;;;;;;;14.18;69.06;101775.34;4937561;28;102208;-52
2021/11/12 15:29:11;;;;;;;3.97;3.40;;;;;;;14.18;69.25;101783.56;4924944;28;102052;-52
2021/11/12 15:34:29;;;;;;;5.32;4.10;;;;;;;14.18;68.92;101785.47;4934636;28;104198;-52
2021/11/12 15:37:03;;;;;;;4.30;3.70;;;;;;;14.17;68.87;101792.88;4920204;28;102565;-52
2021/11/12 15:44:36;;;;;;;6.20;4.55;;;;;;;14.18;69.17;101802.72;4933948;28;103883;-52
2021/11/12 15:47:15;;;;;;;5.90;4.18;;;;;;;14.17;69.10;101801.09;4918122;28;105017;-52
2021/11/12 15:49:43;;;;;;;6.22;4.85;;;;;;;14.17;69.10;101798.34;4925855;28;102839;-52
2021/11/12 15:52:30;;;;;;;5.75;5.15;;;;;;;14.17;69.18;101805.72;4937426;28;102145;-52
2021/11/12 16:14:24;;;;;;;25.88;14.88;;;;;;;14.17;69.15;101836.69;4933592;28;102146;-52
2021/11/12 16:24:58;;;;;;;63.75;33.53;;;;;;;14.16;69.00;101832.28;4920560;28;102103;-52
2021/11/12 16:27:24;;;;;;;64.43;34.80;;;;;;;14.15;69.25;101841.59;4919398;28;103778;-52
2021/11/12 16:29:54;;;;;;;65.88;34.15;;;;;;;14.15;69.21;101841.59;4928560;28;102147;-52
2021/11/12 16:32:29;;;;;;;;;;;;;;;14.15;69.38;101838.03;4926088;28;102032;-52
2021/11/12 16:35:00;;;;;;;63.30;35.13;;;;;;;14.16;69.24;101837.75;4930870;28;102161;-52
2021/11/12 16:37:28;;;;;;;65.30;36.70;;;;;;;14.15;69.09;101841.59;4923156;28;103910;-52
2021/11/12 16:40:41;;;;;;;61.15;34.33;;;;;;;14.16;69.23;101842.41;4923844;28;102503;-52
2021/11/12 16:52:59;;;;;;;70.80;37.72;;;;;;;14.15;69.20;101847.06;4935124;28;102141;-52
2021/11/12 17:03:52;;;;;;;;;;;;;;;14.15;69.36;101866.22;4926091;28;102172;-52
2021/11/12 17:06:20;;;;;;;69.10;37.50;;;;;;;14.14;69.30;101859.13;4928653;28;102490;-52
2021/11/12 17:46:20;;;;;;;62.67;37.60;;;;;;;14.12;68.99;101871.41;4926445;28;102446;-52
2021/11/12 17:48:54;;;;;;;66.60;38.05;;;;;;;14.13;69.29;101867.56;4925552;28;102627;-52
2021/11/12 18:02:28;;;;;;;58.13;37.05;;;;;;;14.11;69.28;101873.34;4926502;28;103840;-52